createdAt,value
2018-12-09T00:00:30.792Z,16.80
2018-12-09T00:01:08.630Z,16.80
2018-12-09T00:01:46.849Z,16.80
2018-12-09T00:02:24.945Z,16.80
2018-12-09T00:03:02.933Z,16.90
2018-12-09T00:03:40.960Z,16.90
2018-12-09T00:04:18.900Z,16.80
2018-12-09T00:04:56.854Z,16.80
2018-12-09T00:05:34.951Z,16.80
2018-12-09T00:06:13.620Z,16.80
2018-12-09T00:06:51.580Z,16.80
2018-12-09T00:07:29.490Z,16.80
2018-12-09T00:08:07.150Z,16.80
2018-12-09T00:08:45.020Z,16.80
2018-12-09T00:09:22.743Z,16.80
2018-12-09T00:10:00.748Z,16.80
2018-12-09T00:10:38.703Z,16.80
2018-12-09T00:11:16.571Z,16.80
2018-12-09T00:11:54.723Z,16.80
2018-12-09T00:12:32.883Z,16.80
2018-12-09T00:13:10.843Z,16.90
2018-12-09T00:13:48.449Z,16.80
2018-12-09T00:14:26.538Z,16.80
2018-12-09T00:15:05.222Z,16.80
2018-12-09T00:15:42.920Z,16.80
2018-12-09T00:16:21.054Z,16.80
2018-12-09T00:16:58.889Z,16.80
2018-12-09T00:17:36.763Z,16.80
2018-12-09T00:18:15.078Z,16.80
2018-12-09T00:18:53.031Z,16.80
2018-12-09T00:19:30.790Z,16.80
2018-12-09T00:20:08.700Z,16.80
2018-12-09T00:20:46.609Z,16.80
2018-12-09T00:21:24.335Z,16.80
2018-12-09T00:22:02.557Z,16.80
2018-12-09T00:22:40.446Z,16.80
2018-12-09T00:23:18.288Z,16.80
2018-12-09T00:23:56.188Z,16.80
2018-12-09T00:24:33.809Z,16.80
2018-12-09T00:25:11.548Z,16.80
2018-12-09T00:25:49.428Z,16.80
2018-12-09T00:26:27.250Z,16.80
2018-12-09T00:27:04.958Z,16.80
2018-12-09T00:27:43.047Z,16.80
2018-12-09T00:28:20.917Z,16.80
2018-12-09T00:28:59.916Z,16.80
2018-12-09T00:29:38.219Z,16.80
2018-12-09T00:30:16.190Z,16.80
2018-12-09T00:30:53.716Z,16.80
2018-12-09T00:31:31.509Z,16.80
2018-12-09T00:32:09.478Z,16.80
2018-12-09T00:32:47.165Z,16.90
2018-12-09T00:33:25.067Z,16.80
2018-12-09T00:34:02.996Z,16.90
2018-12-09T00:34:42.186Z,16.80
2018-12-09T00:35:20.195Z,16.80
2018-12-09T00:35:58.215Z,16.80
2018-12-09T00:36:35.975Z,16.80
2018-12-09T00:37:13.661Z,16.80
2018-12-09T00:37:51.444Z,16.80
2018-12-09T00:38:29.364Z,16.80
2018-12-09T00:39:07.166Z,16.90
2018-12-09T00:39:45.014Z,16.90
2018-12-09T00:40:23.003Z,16.90
2018-12-09T00:41:01.332Z,16.90
2018-12-09T00:41:39.174Z,16.80
2018-12-09T00:42:17.014Z,16.90
2018-12-09T00:42:54.438Z,16.90
2018-12-09T00:43:32.353Z,16.90
2018-12-09T00:44:10.072Z,16.80
2018-12-09T00:44:48.064Z,16.80
2018-12-09T00:45:26.062Z,16.80
2018-12-09T00:46:04.102Z,16.90
2018-12-09T00:46:41.822Z,16.90
2018-12-09T00:47:19.823Z,16.90
2018-12-09T00:47:57.885Z,16.90
2018-12-09T00:48:36.053Z,16.90
2018-12-09T00:49:13.886Z,16.90
2018-12-09T00:49:52.002Z,16.90
2018-12-09T00:50:29.942Z,16.90
2018-12-09T00:51:07.729Z,16.80
2018-12-09T00:51:46.321Z,16.80
2018-12-09T00:52:24.220Z,16.80
2018-12-09T00:53:02.323Z,16.80
2018-12-09T00:53:40.420Z,16.80
2018-12-09T00:54:18.458Z,16.80
2018-12-09T00:54:56.551Z,16.80
2018-12-09T00:55:34.993Z,16.80
2018-12-09T00:56:13.135Z,16.80
2018-12-09T00:56:51.154Z,16.80
2018-12-09T00:57:29.076Z,16.80
2018-12-09T00:58:06.860Z,16.80
2018-12-09T00:58:44.570Z,16.80
2018-12-09T00:59:22.380Z,16.80
2018-12-09T01:00:00.209Z,16.80
2018-12-09T01:00:38.273Z,16.80
2018-12-09T01:01:16.793Z,16.80
2018-12-09T01:01:54.580Z,16.80
2018-12-09T01:02:33.119Z,16.80
2018-12-09T01:03:10.801Z,16.70
2018-12-09T01:03:48.769Z,16.70
2018-12-09T01:04:27.119Z,16.80
2018-12-09T01:05:04.954Z,16.80
2018-12-09T01:05:42.707Z,16.80
2018-12-09T01:06:21.250Z,16.80
2018-12-09T01:06:59.399Z,16.80
2018-12-09T01:07:37.109Z,16.80
2018-12-09T01:08:16.478Z,16.80
2018-12-09T01:08:54.023Z,16.80
2018-12-09T01:09:32.327Z,16.90
2018-12-09T01:10:09.998Z,16.80
2018-12-09T01:10:47.992Z,16.90
2018-12-09T01:11:25.898Z,16.80
2018-12-09T01:12:03.897Z,16.80
2018-12-09T01:12:42.027Z,16.80
2018-12-09T01:13:20.526Z,16.80
2018-12-09T01:13:58.068Z,16.80
2018-12-09T01:14:35.668Z,16.80
2018-12-09T01:15:13.760Z,16.80
2018-12-09T01:15:51.777Z,16.80
2018-12-09T01:16:29.804Z,16.80
2018-12-09T01:17:08.007Z,16.80
2018-12-09T01:17:46.042Z,16.80
2018-12-09T01:18:24.028Z,16.80
2018-12-09T01:19:02.069Z,16.80
2018-12-09T01:19:39.889Z,16.80
2018-12-09T01:20:18.023Z,16.80
2018-12-09T01:20:56.107Z,16.80
2018-12-09T01:21:33.956Z,16.80
2018-12-09T01:22:12.096Z,16.80
2018-12-09T01:22:50.029Z,16.80
2018-12-09T01:23:27.938Z,16.80
2018-12-09T01:24:05.995Z,16.80
2018-12-09T01:24:43.796Z,16.80
2018-12-09T01:25:21.718Z,16.80
2018-12-09T01:25:59.626Z,16.80
2018-12-09T01:26:37.558Z,16.80
2018-12-09T01:27:15.485Z,16.80
2018-12-09T01:27:53.355Z,16.80
2018-12-09T01:28:31.325Z,16.80
2018-12-09T01:29:09.265Z,16.80
2018-12-09T01:29:47.140Z,16.80
2018-12-09T01:30:24.765Z,16.80
2018-12-09T01:31:02.629Z,16.80
2018-12-09T01:31:40.503Z,16.80
2018-12-09T01:32:18.282Z,16.80
2018-12-09T01:32:56.095Z,16.90
2018-12-09T01:33:34.734Z,16.90
2018-12-09T01:34:12.754Z,16.80
2018-12-09T01:34:50.533Z,16.90
2018-12-09T01:35:28.564Z,16.90
2018-12-09T01:36:06.214Z,16.90
2018-12-09T01:36:43.823Z,16.90
2018-12-09T01:37:21.852Z,16.90
2018-12-09T01:38:00.665Z,16.90
2018-12-09T01:38:38.413Z,16.90
2018-12-09T01:39:16.563Z,16.80
2018-12-09T01:39:54.473Z,16.80
2018-12-09T01:40:32.373Z,16.80
2018-12-09T01:41:10.235Z,16.90
2018-12-09T01:41:47.962Z,16.80
2018-12-09T01:42:26.502Z,16.80
2018-12-09T01:43:04.665Z,16.80
2018-12-09T01:43:42.406Z,16.80
2018-12-09T01:44:20.292Z,16.80
2018-12-09T01:44:57.887Z,16.80
2018-12-09T01:45:35.592Z,16.90
2018-12-09T01:46:13.352Z,16.80
2018-12-09T01:46:51.356Z,16.90
2018-12-09T01:47:29.031Z,16.80
2018-12-09T01:48:06.811Z,16.80
2018-12-09T01:48:44.641Z,16.80
2018-12-09T01:49:22.652Z,16.80
2018-12-09T01:50:00.552Z,16.80
2018-12-09T01:50:38.071Z,16.80
2018-12-09T01:51:15.640Z,16.80
2018-12-09T01:51:53.391Z,16.80
2018-12-09T01:52:31.551Z,16.90
2018-12-09T01:53:09.360Z,16.90
2018-12-09T01:53:47.330Z,16.90
2018-12-09T01:54:25.053Z,16.90
2018-12-09T01:55:02.954Z,16.90
2018-12-09T01:55:41.041Z,16.90
2018-12-09T01:56:19.030Z,16.80
2018-12-09T01:56:57.262Z,16.90
2018-12-09T01:57:35.250Z,16.90
2018-12-09T01:58:12.821Z,16.80
2018-12-09T01:58:50.561Z,16.80
2018-12-09T01:59:28.865Z,16.80
2018-12-09T02:00:07.061Z,16.90
2018-12-09T02:00:44.961Z,16.90
2018-12-09T02:01:23.174Z,16.80
2018-12-09T02:02:01.334Z,16.80
2018-12-09T02:02:39.473Z,16.80
2018-12-09T02:03:17.373Z,16.80
2018-12-09T02:03:55.269Z,16.80
2018-12-09T02:04:33.330Z,16.80
2018-12-09T02:05:11.198Z,16.80
2018-12-09T02:05:49.298Z,16.80
2018-12-09T02:06:27.177Z,16.80
2018-12-09T02:07:05.100Z,16.80
2018-12-09T02:07:42.840Z,16.80
2018-12-09T02:08:20.812Z,16.80
2018-12-09T02:08:58.538Z,16.80
2018-12-09T02:09:36.502Z,16.80
2018-12-09T02:10:14.947Z,16.80
2018-12-09T02:10:53.171Z,16.80
2018-12-09T02:11:31.082Z,16.80
2018-12-09T02:12:09.096Z,16.80
2018-12-09T02:12:46.807Z,16.80
2018-12-09T02:13:24.638Z,16.80
2018-12-09T02:14:02.507Z,16.80
2018-12-09T02:14:41.087Z,16.80
2018-12-09T02:15:18.926Z,16.80
2018-12-09T02:15:57.024Z,16.80
2018-12-09T02:16:34.878Z,16.80
2018-12-09T02:17:12.625Z,16.80
2018-12-09T02:17:50.705Z,16.80
2018-12-09T02:18:28.697Z,16.80
2018-12-09T02:19:06.717Z,16.80
2018-12-09T02:19:44.615Z,16.80
2018-12-09T02:20:22.456Z,16.80
2018-12-09T02:21:00.548Z,16.80
2018-12-09T02:21:38.437Z,16.80
2018-12-09T02:22:16.387Z,16.80
2018-12-09T02:22:54.405Z,16.80
2018-12-09T02:23:32.080Z,16.80
2018-12-09T02:24:09.844Z,16.80
2018-12-09T02:24:47.717Z,16.80
2018-12-09T02:25:25.565Z,16.80
2018-12-09T02:26:03.189Z,16.80
2018-12-09T02:26:40.974Z,16.80
2018-12-09T02:27:18.758Z,16.80
2018-12-09T02:27:56.607Z,16.80
2018-12-09T02:28:34.535Z,16.80
2018-12-09T02:29:13.162Z,16.80
2018-12-09T02:29:51.423Z,16.80
2018-12-09T02:30:29.477Z,16.80
2018-12-09T02:31:07.344Z,16.80
2018-12-09T02:31:45.217Z,16.80
2018-12-09T02:32:23.206Z,16.80
2018-12-09T02:33:01.198Z,16.80
2018-12-09T02:33:39.281Z,16.80
2018-12-09T02:34:16.934Z,16.80
2018-12-09T02:34:54.830Z,16.80
2018-12-09T02:35:32.860Z,16.80
2018-12-09T02:36:11.015Z,16.80
2018-12-09T02:36:48.983Z,16.80
2018-12-09T02:37:26.733Z,16.90
2018-12-09T02:38:05.143Z,16.90
2018-12-09T02:38:42.922Z,16.80
2018-12-09T02:39:20.793Z,16.80
2018-12-09T02:39:58.639Z,16.80
2018-12-09T02:40:36.473Z,16.80
2018-12-09T02:41:14.433Z,16.80
2018-12-09T02:41:52.344Z,16.80
2018-12-09T02:42:31.323Z,16.80
2018-12-09T02:43:09.324Z,16.90
2018-12-09T02:43:46.893Z,16.80
2018-12-09T02:44:24.543Z,16.80
2018-12-09T02:45:02.478Z,16.80
2018-12-09T02:45:40.179Z,16.80
2018-12-09T02:46:17.734Z,16.80
2018-12-09T02:46:55.866Z,16.80
2018-12-09T02:47:33.922Z,16.80
2018-12-09T02:48:11.681Z,16.80
2018-12-09T02:48:49.471Z,16.80
2018-12-09T02:49:27.409Z,16.80
2018-12-09T02:50:05.196Z,16.80
2018-12-09T02:50:43.173Z,16.80
2018-12-09T02:51:20.961Z,16.80
2018-12-09T02:51:58.668Z,16.80
2018-12-09T02:52:36.623Z,16.80
2018-12-09T02:53:14.367Z,16.80
2018-12-09T02:53:51.964Z,16.80
2018-12-09T02:54:29.919Z,16.80
2018-12-09T02:55:08.122Z,16.80
2018-12-09T02:55:45.841Z,16.80
2018-12-09T02:56:23.840Z,16.80
2018-12-09T02:57:02.386Z,16.80
2018-12-09T02:57:40.202Z,16.80
2018-12-09T02:58:18.632Z,16.80
2018-12-09T02:58:56.674Z,16.80
2018-12-09T02:59:34.572Z,16.80
2018-12-09T03:00:12.526Z,16.80
2018-12-09T03:00:50.319Z,16.80
2018-12-09T03:01:28.863Z,16.80
2018-12-09T03:02:06.662Z,16.80
2018-12-09T03:02:44.742Z,16.80
2018-12-09T03:03:22.392Z,16.80
2018-12-09T03:04:00.577Z,16.80
2018-12-09T03:04:38.274Z,16.80
2018-12-09T03:05:16.503Z,16.90
2018-12-09T03:05:54.892Z,16.80
2018-12-09T03:06:32.542Z,16.80
2018-12-09T03:07:10.272Z,16.80
2018-12-09T03:07:48.334Z,16.80
2018-12-09T03:08:25.953Z,16.80
2018-12-09T03:09:03.595Z,16.80
2018-12-09T03:09:41.343Z,16.80
2018-12-09T03:10:19.275Z,16.80
2018-12-09T03:10:56.951Z,16.80
2018-12-09T03:11:34.972Z,16.80
2018-12-09T03:12:12.889Z,16.80
2018-12-09T03:12:50.822Z,16.80
2018-12-09T03:13:28.507Z,16.80
2018-12-09T03:14:06.362Z,16.80
2018-12-09T03:14:44.396Z,16.80
2018-12-09T03:15:22.401Z,16.80
2018-12-09T03:16:00.573Z,16.80
2018-12-09T03:16:38.121Z,16.80
2018-12-09T03:17:16.192Z,16.80
2018-12-09T03:17:53.961Z,16.80
2018-12-09T03:18:31.891Z,16.70
2018-12-09T03:19:09.822Z,16.70
2018-12-09T03:19:47.506Z,16.70
2018-12-09T03:20:26.053Z,16.70
2018-12-09T03:21:03.732Z,16.70
2018-12-09T03:21:41.468Z,16.80
2018-12-09T03:22:20.032Z,16.70
2018-12-09T03:22:58.032Z,16.70
2018-12-09T03:23:35.951Z,16.70
2018-12-09T03:24:13.802Z,16.70
2018-12-09T03:24:52.282Z,16.70
2018-12-09T03:25:30.094Z,16.70
2018-12-09T03:26:07.862Z,16.70
2018-12-09T03:26:45.904Z,16.70
2018-12-09T03:27:23.621Z,16.80
2018-12-09T03:28:01.672Z,16.70
2018-12-09T03:28:39.294Z,16.80
2018-12-09T03:29:17.052Z,16.70
2018-12-09T03:29:54.891Z,16.70
2018-12-09T03:30:32.528Z,16.70
2018-12-09T03:31:10.346Z,16.70
2018-12-09T03:31:48.078Z,16.70
2018-12-09T03:32:25.917Z,16.70
2018-12-09T03:33:03.855Z,16.70
2018-12-09T03:33:41.651Z,16.70
2018-12-09T03:34:19.793Z,16.70
2018-12-09T03:34:58.163Z,16.70
2018-12-09T03:35:35.950Z,16.70
2018-12-09T03:36:13.761Z,16.70
2018-12-09T03:36:51.491Z,16.70
2018-12-09T03:37:29.546Z,16.70
2018-12-09T03:38:07.335Z,16.70
2018-12-09T03:38:45.321Z,16.70
2018-12-09T03:39:23.839Z,16.70
2018-12-09T03:40:01.672Z,16.70
2018-12-09T03:40:39.490Z,16.70
2018-12-09T03:41:17.755Z,16.70
2018-12-09T03:41:55.433Z,16.70
2018-12-09T03:42:32.961Z,16.70
2018-12-09T03:43:10.751Z,16.70
2018-12-09T03:43:48.951Z,16.70
2018-12-09T03:44:27.422Z,16.70
2018-12-09T03:45:05.512Z,16.70
2018-12-09T03:45:43.698Z,16.70
2018-12-09T03:46:21.864Z,16.70
2018-12-09T03:46:59.980Z,16.70
2018-12-09T03:47:38.174Z,16.70
2018-12-09T03:48:15.632Z,16.70
2018-12-09T03:48:53.345Z,16.70
2018-12-09T03:49:31.278Z,16.70
2018-12-09T03:50:09.229Z,16.70
2018-12-09T03:50:47.125Z,16.70
2018-12-09T03:51:24.471Z,16.70
2018-12-09T03:52:02.530Z,16.70
2018-12-09T03:52:40.663Z,16.70
2018-12-09T03:53:18.659Z,16.70
2018-12-09T03:53:56.989Z,16.60
2018-12-09T03:54:34.689Z,16.70
2018-12-09T03:55:12.657Z,16.60
2018-12-09T03:55:50.640Z,16.70
2018-12-09T03:56:28.530Z,16.70
2018-12-09T03:57:06.419Z,16.70
2018-12-09T03:57:44.370Z,16.70
2018-12-09T03:58:22.313Z,16.70
2018-12-09T03:59:00.121Z,16.70
2018-12-09T03:59:37.910Z,16.70
2018-12-09T04:00:15.703Z,16.70
2018-12-09T04:00:53.364Z,16.70
2018-12-09T04:01:31.074Z,16.70
2018-12-09T04:02:08.952Z,16.70
2018-12-09T04:02:47.334Z,16.70
2018-12-09T04:03:25.460Z,16.70
2018-12-09T04:04:03.400Z,16.70
2018-12-09T04:04:41.168Z,16.70
2018-12-09T04:05:19.363Z,16.70
2018-12-09T04:05:57.159Z,16.70
2018-12-09T04:06:35.014Z,16.70
2018-12-09T04:07:13.022Z,16.70
2018-12-09T04:07:51.143Z,16.70
2018-12-09T04:08:29.241Z,16.70
2018-12-09T04:09:07.348Z,16.70
2018-12-09T04:09:45.030Z,16.70
2018-12-09T04:10:23.021Z,16.70
2018-12-09T04:11:00.880Z,16.70
2018-12-09T04:11:38.716Z,16.70
2018-12-09T04:12:16.516Z,16.70
2018-12-09T04:12:54.470Z,16.70
2018-12-09T04:13:32.529Z,16.70
2018-12-09T04:14:10.728Z,16.70
2018-12-09T04:14:48.654Z,16.70
2018-12-09T04:15:26.630Z,16.70
2018-12-09T04:16:04.429Z,16.70
2018-12-09T04:16:42.230Z,16.70
2018-12-09T04:17:20.629Z,16.70
2018-12-09T04:17:58.855Z,16.70
2018-12-09T04:18:36.958Z,16.70
2018-12-09T04:19:14.670Z,16.70
2018-12-09T04:19:52.790Z,16.70
2018-12-09T04:20:30.522Z,16.70
2018-12-09T04:21:08.669Z,16.70
2018-12-09T04:21:46.443Z,16.70
2018-12-09T04:22:24.506Z,16.70
2018-12-09T04:23:02.852Z,16.70
2018-12-09T04:23:41.010Z,16.60
2018-12-09T04:24:19.098Z,16.70
2018-12-09T04:24:57.125Z,16.70
2018-12-09T04:25:34.983Z,16.70
2018-12-09T04:26:12.968Z,16.70
2018-12-09T04:26:51.026Z,16.70
2018-12-09T04:27:29.258Z,16.70
2018-12-09T04:28:07.174Z,16.70
2018-12-09T04:28:45.129Z,16.70
2018-12-09T04:29:24.465Z,16.70
2018-12-09T04:30:02.380Z,16.60
2018-12-09T04:30:40.319Z,16.70
2018-12-09T04:31:18.030Z,16.70
2018-12-09T04:31:56.458Z,16.70
2018-12-09T04:32:34.521Z,16.70
2018-12-09T04:33:12.458Z,16.70
2018-12-09T04:33:50.387Z,16.70
2018-12-09T04:34:28.089Z,16.60
2018-12-09T04:35:06.128Z,16.70
2018-12-09T04:35:43.839Z,16.70
2018-12-09T04:36:21.673Z,16.70
2018-12-09T04:36:59.652Z,16.70
2018-12-09T04:37:37.939Z,16.70
2018-12-09T04:38:15.918Z,16.70
2018-12-09T04:38:53.939Z,16.70
2018-12-09T04:39:31.870Z,16.70
2018-12-09T04:40:09.980Z,16.70
2018-12-09T04:40:47.830Z,16.70
2018-12-09T04:41:25.469Z,16.70
2018-12-09T04:42:03.819Z,16.70
2018-12-09T04:42:41.798Z,16.70
2018-12-09T04:43:19.291Z,16.70
2018-12-09T04:43:57.108Z,16.70
2018-12-09T04:44:35.058Z,16.70
2018-12-09T04:45:12.579Z,16.70
2018-12-09T04:45:50.269Z,16.70
2018-12-09T04:46:28.358Z,16.70
2018-12-09T04:47:06.010Z,16.70
2018-12-09T04:47:44.118Z,16.70
2018-12-09T04:48:22.268Z,16.70
2018-12-09T04:49:00.093Z,16.70
2018-12-09T04:49:37.717Z,16.70
2018-12-09T04:50:15.597Z,16.70
2018-12-09T04:50:53.412Z,16.70
2018-12-09T04:51:31.287Z,16.60
2018-12-09T04:52:09.199Z,16.70
2018-12-09T04:52:46.848Z,16.70
2018-12-09T04:53:24.998Z,16.70
2018-12-09T04:54:02.864Z,16.70
2018-12-09T04:54:40.956Z,16.70
2018-12-09T04:55:19.004Z,16.60
2018-12-09T04:55:56.800Z,16.70
2018-12-09T04:56:35.107Z,16.70
2018-12-09T04:57:13.767Z,16.70
2018-12-09T04:57:51.724Z,16.70
2018-12-09T04:58:29.889Z,16.70
2018-12-09T04:59:07.770Z,16.70
2018-12-09T04:59:45.627Z,16.70
2018-12-09T05:00:24.047Z,16.70
2018-12-09T05:01:02.217Z,16.70
2018-12-09T05:01:40.796Z,16.70
2018-12-09T05:02:18.507Z,16.70
2018-12-09T05:02:56.532Z,16.70
2018-12-09T05:03:34.359Z,16.70
2018-12-09T05:04:12.077Z,16.70
2018-12-09T05:04:50.017Z,16.70
2018-12-09T05:05:28.358Z,16.70
2018-12-09T05:06:06.237Z,16.70
2018-12-09T05:06:43.968Z,16.70
2018-12-09T05:07:21.938Z,16.70
2018-12-09T05:07:59.669Z,16.70
2018-12-09T05:08:37.547Z,16.70
2018-12-09T05:09:15.189Z,16.70
2018-12-09T05:09:53.230Z,16.70
2018-12-09T05:10:30.868Z,16.70
2018-12-09T05:11:09.104Z,16.70
2018-12-09T05:11:47.151Z,16.70
2018-12-09T05:12:25.001Z,16.70
2018-12-09T05:13:02.864Z,16.70
2018-12-09T05:13:40.621Z,16.70
2018-12-09T05:14:18.416Z,16.70
2018-12-09T05:14:56.160Z,16.70
2018-12-09T05:15:34.614Z,16.70
2018-12-09T05:16:12.609Z,16.70
2018-12-09T05:16:50.221Z,16.70
2018-12-09T05:17:28.300Z,16.70
2018-12-09T05:18:05.830Z,16.70
2018-12-09T05:18:43.854Z,16.70
2018-12-09T05:19:21.932Z,16.70
2018-12-09T05:19:59.522Z,16.70
2018-12-09T05:20:37.304Z,16.70
2018-12-09T05:21:15.711Z,16.60
2018-12-09T05:21:53.830Z,16.60
2018-12-09T05:22:31.803Z,16.60
2018-12-09T05:23:09.744Z,16.60
2018-12-09T05:23:47.832Z,16.60
2018-12-09T05:24:25.763Z,16.60
2018-12-09T05:25:03.780Z,16.60
2018-12-09T05:25:42.393Z,16.60
2018-12-09T05:26:20.113Z,16.60
2018-12-09T05:26:58.044Z,16.70
2018-12-09T05:27:35.974Z,16.70
2018-12-09T05:28:13.864Z,16.70
2018-12-09T05:28:51.648Z,16.70
2018-12-09T05:29:29.833Z,16.60
2018-12-09T05:30:08.122Z,16.70
2018-12-09T05:30:45.884Z,16.70
2018-12-09T05:31:23.994Z,16.70
2018-12-09T05:32:01.564Z,16.70
2018-12-09T05:32:39.346Z,16.70
2018-12-09T05:33:17.183Z,16.70
2018-12-09T05:33:55.174Z,16.70
2018-12-09T05:34:33.300Z,16.70
2018-12-09T05:35:11.142Z,16.60
2018-12-09T05:35:48.784Z,16.60
2018-12-09T05:36:26.725Z,16.60
2018-12-09T05:37:04.895Z,16.60
2018-12-09T05:37:42.664Z,16.60
2018-12-09T05:38:20.285Z,16.60
2018-12-09T05:38:58.162Z,16.60
2018-12-09T05:39:35.925Z,16.60
2018-12-09T05:40:13.989Z,16.60
2018-12-09T05:40:51.844Z,16.60
2018-12-09T05:41:29.536Z,16.60
2018-12-09T05:42:07.174Z,16.60
2018-12-09T05:42:44.858Z,16.60
2018-12-09T05:43:23.085Z,16.60
2018-12-09T05:44:01.127Z,16.50
2018-12-09T05:44:39.249Z,16.50
2018-12-09T05:45:17.146Z,16.50
2018-12-09T05:45:55.449Z,16.50
2018-12-09T05:46:33.238Z,16.60
2018-12-09T05:47:10.853Z,16.60
2018-12-09T05:47:48.803Z,16.60
2018-12-09T05:48:26.647Z,16.60
2018-12-09T05:49:04.556Z,16.60
2018-12-09T05:49:42.396Z,16.60
2018-12-09T05:50:20.536Z,16.60
2018-12-09T05:50:58.476Z,16.60
2018-12-09T05:51:36.316Z,16.60
2018-12-09T05:52:14.394Z,16.50
2018-12-09T05:52:52.056Z,16.50
2018-12-09T05:53:30.085Z,16.50
2018-12-09T05:54:07.977Z,16.50
2018-12-09T05:54:46.912Z,16.50
2018-12-09T05:55:24.947Z,16.50
2018-12-09T05:56:02.726Z,16.50
2018-12-09T05:56:40.408Z,16.50
2018-12-09T05:57:18.110Z,16.50
2018-12-09T05:57:55.976Z,16.50
2018-12-09T05:58:34.037Z,16.40
2018-12-09T05:59:11.886Z,16.50
2018-12-09T05:59:49.756Z,16.40
2018-12-09T06:00:27.871Z,16.50
2018-12-09T06:01:05.546Z,16.50
2018-12-09T06:01:43.628Z,16.50
2018-12-09T06:02:21.607Z,16.50
2018-12-09T06:02:59.629Z,16.40
2018-12-09T06:03:37.786Z,16.40
2018-12-09T06:04:15.778Z,16.40
2018-12-09T06:04:53.863Z,16.40
2018-12-09T06:05:31.728Z,16.40
2018-12-09T06:06:09.318Z,16.40
2018-12-09T06:06:47.151Z,16.40
2018-12-09T06:07:24.810Z,16.50
2018-12-09T06:08:02.729Z,16.40
2018-12-09T06:08:40.731Z,16.40
2018-12-09T06:09:18.678Z,16.40
2018-12-09T06:09:56.778Z,16.40
2018-12-09T06:10:34.891Z,16.40
2018-12-09T06:11:12.486Z,16.40
2018-12-09T06:11:50.519Z,16.40
2018-12-09T06:12:28.378Z,16.40
2018-12-09T06:13:06.329Z,16.40
2018-12-09T06:13:44.257Z,16.40
2018-12-09T06:14:21.993Z,16.40
2018-12-09T06:15:00.219Z,16.40
2018-12-09T06:15:37.960Z,16.40
2018-12-09T06:16:15.559Z,16.40
2018-12-09T06:16:53.163Z,16.40
2018-12-09T06:17:30.649Z,16.40
2018-12-09T06:18:08.536Z,16.40
2018-12-09T06:18:46.588Z,16.40
2018-12-09T06:19:24.681Z,16.40
2018-12-09T06:20:02.590Z,16.30
2018-12-09T06:20:40.546Z,16.30
2018-12-09T06:21:18.763Z,16.30
2018-12-09T06:21:56.851Z,16.30
2018-12-09T06:22:34.480Z,16.30
2018-12-09T06:23:12.110Z,16.30
2018-12-09T06:23:50.620Z,16.30
2018-12-09T06:24:28.732Z,16.30
2018-12-09T06:25:06.983Z,16.30
2018-12-09T06:25:44.635Z,16.30
2018-12-09T06:26:22.630Z,16.30
2018-12-09T06:27:00.437Z,16.30
2018-12-09T06:27:38.412Z,16.30
2018-12-09T06:28:16.382Z,16.30
2018-12-09T06:28:55.067Z,16.30
2018-12-09T06:29:33.704Z,16.30
2018-12-09T06:30:11.488Z,16.30
2018-12-09T06:30:49.693Z,16.30
2018-12-09T06:31:27.464Z,16.30
2018-12-09T06:32:05.430Z,16.30
2018-12-09T06:32:43.224Z,16.30
2018-12-09T06:33:21.184Z,16.30
2018-12-09T06:33:59.813Z,16.30
2018-12-09T06:34:37.893Z,16.30
2018-12-09T06:35:15.604Z,16.30
2018-12-09T06:35:53.307Z,16.30
2018-12-09T06:36:31.074Z,16.30
2018-12-09T06:37:08.649Z,16.30
2018-12-09T06:37:46.785Z,16.20
2018-12-09T06:38:25.574Z,16.30
2018-12-09T06:39:03.356Z,16.30
2018-12-09T06:39:41.204Z,16.30
2018-12-09T06:40:19.106Z,16.30
2018-12-09T06:40:57.456Z,16.20
2018-12-09T06:41:35.316Z,16.20
2018-12-09T06:42:13.339Z,16.30
2018-12-09T06:42:50.809Z,16.30
2018-12-09T06:43:28.576Z,16.20
2018-12-09T06:44:07.096Z,16.20
2018-12-09T06:44:45.255Z,16.30
2018-12-09T06:45:22.985Z,16.30
2018-12-09T06:46:00.950Z,16.30
2018-12-09T06:46:38.730Z,16.20
2018-12-09T06:47:16.240Z,16.30
2018-12-09T06:47:54.205Z,16.30
2018-12-09T06:48:32.019Z,16.30
2018-12-09T06:49:09.699Z,16.30
2018-12-09T06:49:48.197Z,16.30
2018-12-09T06:50:26.066Z,16.30
2018-12-09T06:51:04.038Z,16.30
2018-12-09T06:51:42.458Z,16.20
2018-12-09T06:52:19.921Z,16.20
2018-12-09T06:52:57.739Z,16.20
2018-12-09T06:53:35.569Z,16.20
2018-12-09T06:54:14.021Z,16.20
2018-12-09T06:54:51.768Z,16.20
2018-12-09T06:55:29.332Z,16.20
2018-12-09T06:56:06.921Z,16.20
2018-12-09T06:56:45.130Z,16.20
2018-12-09T06:57:23.029Z,16.20
2018-12-09T06:58:00.568Z,16.20
2018-12-09T06:58:38.188Z,16.20
2018-12-09T06:59:16.250Z,16.20
2018-12-09T06:59:54.819Z,16.20
2018-12-09T07:00:32.751Z,16.20
2018-12-09T07:01:10.623Z,16.20
2018-12-09T07:01:48.681Z,16.20
2018-12-09T07:02:26.461Z,16.20
2018-12-09T07:03:05.517Z,16.20
2018-12-09T07:03:43.451Z,16.20
2018-12-09T07:04:21.660Z,16.20
2018-12-09T07:04:59.791Z,16.20
2018-12-09T07:05:37.728Z,16.10
2018-12-09T07:06:15.750Z,16.20
2018-12-09T07:06:53.481Z,16.20
2018-12-09T07:07:31.470Z,16.20
2018-12-09T07:08:08.993Z,16.20
2018-12-09T07:08:46.903Z,16.20
2018-12-09T07:09:24.691Z,16.20
2018-12-09T07:10:03.111Z,16.20
2018-12-09T07:10:41.230Z,16.20
2018-12-09T07:11:18.984Z,16.20
2018-12-09T07:11:56.695Z,16.20
2018-12-09T07:12:35.421Z,16.20
2018-12-09T07:13:13.342Z,16.20
2018-12-09T07:13:50.983Z,16.20
2018-12-09T07:14:29.142Z,16.20
2018-12-09T07:15:06.935Z,16.20
2018-12-09T07:15:44.923Z,16.20
2018-12-09T07:16:22.832Z,16.20
2018-12-09T07:17:00.703Z,16.20
2018-12-09T07:17:38.363Z,16.20
2018-12-09T07:18:16.132Z,16.20
2018-12-09T07:18:53.782Z,16.20
2018-12-09T07:19:31.564Z,16.20
2018-12-09T07:20:09.923Z,16.10
2018-12-09T07:20:47.647Z,16.10
2018-12-09T07:21:25.545Z,16.10
2018-12-09T07:22:03.788Z,16.10
2018-12-09T07:22:41.387Z,16.10
2018-12-09T07:23:19.693Z,16.10
2018-12-09T07:23:57.806Z,16.10
2018-12-09T07:24:36.303Z,16.10
2018-12-09T07:25:14.093Z,16.10
2018-12-09T07:25:52.096Z,16.10
2018-12-09T07:26:29.814Z,16.10
2018-12-09T07:27:07.618Z,16.10
2018-12-09T07:27:45.492Z,16.10
2018-12-09T07:28:23.293Z,16.10
2018-12-09T07:29:01.273Z,16.10
2018-12-09T07:29:39.357Z,16.10
2018-12-09T07:30:17.182Z,16.10
2018-12-09T07:30:55.182Z,16.10
2018-12-09T07:31:33.394Z,16.10
2018-12-09T07:32:11.543Z,16.10
2018-12-09T07:32:49.123Z,16.10
2018-12-09T07:33:27.223Z,16.10
2018-12-09T07:34:04.943Z,16.10
2018-12-09T07:34:43.427Z,16.10
2018-12-09T07:35:21.632Z,16.10
2018-12-09T07:35:59.695Z,16.10
2018-12-09T07:36:37.533Z,16.10
2018-12-09T07:37:15.551Z,16.10
2018-12-09T07:37:53.133Z,16.20
2018-12-09T07:38:31.152Z,16.20
2018-12-09T07:39:09.145Z,16.10
2018-12-09T07:39:47.241Z,16.10
2018-12-09T07:40:25.113Z,16.10
2018-12-09T07:41:02.910Z,16.10
2018-12-09T07:41:40.725Z,16.10
2018-12-09T07:42:18.702Z,16.10
2018-12-09T07:42:57.264Z,16.10
2018-12-09T07:43:35.106Z,16.20
2018-12-09T07:44:13.003Z,16.20
2018-12-09T07:44:51.451Z,16.20
2018-12-09T07:45:29.543Z,16.10
2018-12-09T07:46:07.386Z,16.10
2018-12-09T07:46:45.122Z,16.10
2018-12-09T07:47:23.480Z,16.10
2018-12-09T07:48:00.929Z,16.20
2018-12-09T07:48:38.741Z,16.10
2018-12-09T07:49:16.741Z,16.10
2018-12-09T07:49:54.818Z,16.10
2018-12-09T07:50:33.890Z,16.10
2018-12-09T07:51:11.492Z,16.10
2018-12-09T07:51:49.504Z,16.10
2018-12-09T07:52:27.641Z,16.10
2018-12-09T07:53:06.172Z,16.10
2018-12-09T07:53:44.133Z,16.10
2018-12-09T07:54:21.770Z,16.10
2018-12-09T07:54:59.702Z,16.10
2018-12-09T07:55:37.510Z,16.10
2018-12-09T07:56:15.331Z,16.10
2018-12-09T07:56:53.201Z,16.10
2018-12-09T07:57:30.804Z,16.10
2018-12-09T07:58:08.923Z,16.10
2018-12-09T07:58:46.860Z,16.10
2018-12-09T07:59:24.674Z,16.10
2018-12-09T08:00:02.560Z,16.10
2018-12-09T08:00:40.511Z,16.10
2018-12-09T08:01:18.517Z,16.10
2018-12-09T08:01:56.600Z,16.10
2018-12-09T08:02:34.290Z,16.10
2018-12-09T08:03:12.121Z,16.10
2018-12-09T08:03:50.139Z,16.10
2018-12-09T08:04:27.849Z,16.10
2018-12-09T08:05:05.713Z,16.10
2018-12-09T08:05:43.651Z,16.10
2018-12-09T08:06:21.923Z,16.10
2018-12-09T08:06:59.957Z,16.20
2018-12-09T08:07:37.849Z,16.20
2018-12-09T08:08:15.717Z,16.10
2018-12-09T08:08:53.489Z,16.10